Time;durP1;ratioP1;P1;durP2;ratioP2;P2;SDS_P1;SDS_P2;PMS_P1;PMS_P2;Temp;Humidity;BMP_temperature;BMP_pressure;BME280_temperature;BME280_humidity;BME280_pressure;Samples;Min_cycle;Max_cycle;Signal;HPM_P1;HPM_P2
2022/05/25 00:00:18;;;;;;;;;;;;;;;;;;5118761;28;19945;-81
2022/05/25 00:02:44;;;;;;;;;;;;;;;;;;5118919;28;19923;-80
2022/05/25 00:05:09;;;;;;;;;;;;;;;;;;5117418;28;20459;-81
2022/05/25 00:07:35;;;;;;;;;;;;;;;;;;5117446;28;20314;-80
2022/05/25 00:10:00;;;;;;;;;;;;;;;;;;5116381;28;19916;-80
2022/05/25 00:12:25;;;;;;;;;;;;;;;;;;5118374;28;19923;-81
2022/05/25 00:14:51;;;;;;;;;;;;;;;;;;5116878;28;19922;-79
2022/05/25 00:17:17;;;;;;;;;;;;;;;;;;5099975;28;19916;-81
2022/05/25 00:20:00;;;;;;;;;;;;;;;;;;5119097;28;19916;-81
2022/05/25 00:22:44;;;;;;;;;;;;;;;;;;5118392;28;19916;-82
2022/05/25 00:25:10;;;;;;;;;;;;;;;;;;5116900;28;20462;-81
2022/05/25 00:27:36;;;;;;;;;;;;;;;;;;5116751;28;19958;-81
2022/05/25 00:30:02;;;;;;;;;;;;;;;;;;5118068;28;19972;-81
2022/05/25 00:32:27;;;;;;;;;;;;;;;;;;5117953;28;20022;-81
2022/05/25 00:34:53;;;;;;;;;;;;;;;;;;5123210;28;19900;-80
2022/05/25 00:37:19;;;;;;;;;;;;;;;;;;5136179;28;20318;-81
2022/05/25 00:39:44;;;;;;;;;;;;;;;;;;5129256;28;19943;-80
2022/05/25 00:42:10;;;;;;;;;;;;;;;;;;5134525;28;20336;-81
2022/05/25 00:44:35;;;;;;;;;;;;;;;;;;5135071;28;19930;-80
2022/05/25 00:47:01;;;;;;;;;;;;;;;;;;5135999;28;19995;-81
2022/05/25 00:49:27;;;;;;;;;;;;;;;;;;5118714;28;19916;-80
2022/05/25 00:51:59;;;;;;;;;;;;;;;;;;5119401;28;19916;-81
2022/05/25 00:54:26;;;;;;;;;;;;;;;;;;5117124;28;19953;-81
2022/05/25 00:56:52;;;;;;;;;;;;;;;;;;5118084;28;19915;-81
2022/05/25 00:59:19;;;;;;;;;;;;;;;;;;5121112;28;19942;-80
2022/05/25 01:01:44;;;;;;;;;;;;;;;;;;5120550;28;19916;-81
2022/05/25 01:04:09;;;;;;;;;;;;;;;;;;5115960;28;19923;-81
2022/05/25 01:06:35;;;;;;;;;;;;;;;;;;5117429;28;19955;-81
2022/05/25 01:09:19;;;;;;;;;;;;;;;;;;5117210;28;20325;-82
2022/05/25 01:11:56;;;;;;;;;;;;;;;;;;5116964;28;19965;-81
2022/05/25 01:14:38;;;;;;;;;;;;;;;;;;5115957;28;19922;-81
2022/05/25 01:17:13;;;;;;;;;;;;;;;;;;5117452;28;19918;-81
2022/05/25 01:19:38;;;;;;;;;;;;;;;;;;5115861;28;20001;-81
2022/05/25 01:22:22;;;;;;;;;;;;;;;;;;5115813;28;19943;-81
2022/05/25 01:25:23;;;;;;;;;;;;;;;;;;5117053;28;20298;-80
2022/05/25 01:27:48;;;;;;;;;;;;;;;;;;5073861;28;19917;-81
2022/05/25 01:30:17;;;;;;;;;;;;;;;;;;5102862;28;19915;-82
2022/05/25 01:32:57;;;;;;;;;;;;;;;;;;5116929;28;19938;-80
2022/05/25 01:35:30;;;;;;;;;;;;;;;;;;5115350;28;19916;-80
2022/05/25 01:37:57;;;;;;;;;;;;;;;;;;5115343;28;20002;-81
2022/05/25 01:40:24;;;;;;;;;;;;;;;;;;5116984;28;20347;-81
2022/05/25 01:42:54;;;;;;;;;;;;;;;;;;5098526;28;20257;-81
2022/05/25 01:45:20;;;;;;;;;;;;;;;;;;5115409;28;20290;-81
2022/05/25 01:47:46;;;;;;;;;;;;;;;;;;5115094;28;19998;-81
2022/05/25 01:50:23;;;;;;;;;;;;;;;;;;5115069;28;20016;-81
2022/05/25 01:52:49;;;;;;;;;;;;;;;;;;5116221;28;19963;-80
2022/05/25 01:55:17;;;;;;;;;;;;;;;;;;5115260;28;20008;-81
2022/05/25 01:57:44;;;;;;;;;;;;;;;;;;5114916;28;19945;-80
2022/05/25 02:00:10;;;;;;;;;;;;;;;;;;5115046;28;19916;-80
2022/05/25 02:05:19;;;;;;;;;;;;;;;;;;5114777;28;20315;-80
2022/05/25 02:07:50;;;;;;;;;;;;;;;;;;5116258;28;19916;-81
2022/05/25 02:10:36;;;;;;;;;;;;;;;;;;5116103;28;19920;-81
2022/05/25 02:13:10;;;;;;;;;;;;;;;;;;5108290;28;19995;-81
2022/05/25 02:15:58;;;;;;;;;;;;;;;;;;5115780;28;19930;-81
2022/05/25 02:18:26;;;;;;;;;;;;;;;;;;5109078;28;19922;-81
2022/05/25 02:20:55;;;;;;;;;;;;;;;;;;5115445;28;20313;-81
2022/05/25 02:23:45;;;;;;;;;;;;;;;;;;5116048;28;20036;-82
2022/05/25 02:26:19;;;;;;;;;;;;;;;;;;5114721;28;20024;-81
2022/05/25 02:28:55;;;;;;;;;;;;;;;;;;5115625;28;20004;-81
2022/05/25 02:31:22;;;;;;;;;;;;;;;;;;5114543;28;20288;-81
2022/05/25 02:33:48;;;;;;;;;;;;;;;;;;5113903;28;19922;-81
2022/05/25 02:36:13;;;;;;;;;;;;;;;;;;5114607;28;19951;-81
2022/05/25 02:38:39;;;;;;;;;;;;;;;;;;5098133;28;19915;-81
2022/05/25 02:41:07;;;;;;;;;;;;;;;;;;5114667;28;19911;-81
2022/05/25 02:43:34;;;;;;;;;;;;;;;;;;5114321;28;19923;-80
2022/05/25 02:45:59;;;;;;;;;;;;;;;;;;5115462;28;19931;-81
2022/05/25 02:48:24;;;;;;;;;;;;;;;;;;5113951;28;19916;-81
2022/05/25 02:50:50;;;;;;;;;;;;;;;;;;5114423;28;19915;-82
2022/05/25 02:53:15;;;;;;;;;;;;;;;;;;5115358;28;19916;-81
2022/05/25 02:55:41;;;;;;;;;;;;;;;;;;5114256;28;20250;-81
2022/05/25 02:58:06;;;;;;;;;;;;;;;;;;5114063;28;20010;-81
2022/05/25 03:00:31;;;;;;;;;;;;;;;;;;5115877;28;19987;-81
2022/05/25 03:02:56;;;;;;;;;;;;;;;;;;5115017;28;20300;-80
2022/05/25 03:05:22;;;;;;;;;;;;;;;;;;5115744;28;19916;-81
2022/05/25 03:07:47;;;;;;;;;;;;;;;;;;5114032;28;19916;-82
2022/05/25 03:10:13;;;;;;;;;;;;;;;;;;5116025;28;19915;-81
2022/05/25 03:12:38;;;;;;;;;;;;;;;;;;5115167;28;19916;-82
2022/05/25 03:15:05;;;;;;;;;;;;;;;;;;5115470;28;19923;-81
2022/05/25 03:17:30;;;;;;;;;;;;;;;;;;5114079;28;19916;-81
2022/05/25 03:19:55;;;;;;;;;;;;;;;;;;5113999;28;19923;-81
2022/05/25 03:22:21;;;;;;;;;;;;;;;;;;5114508;28;19959;-81
2022/05/25 03:24:46;;;;;;;;;;;;;;;;;;5115366;28;19915;-81
2022/05/25 03:27:12;;;;;;;;;;;;;;;;;;5115338;28;19916;-82
2022/05/25 03:29:37;;;;;;;;;;;;;;;;;;5115298;28;19923;-82
2022/05/25 03:32:03;;;;;;;;;;;;;;;;;;5113811;28;20020;-81
2022/05/25 03:34:28;;;;;;;;;;;;;;;;;;5115551;28;19915;-81
2022/05/25 03:36:56;;;;;;;;;;;;;;;;;;5115115;28;20321;-81
2022/05/25 03:39:22;;;;;;;;;;;;;;;;;;5113948;28;20376;-81
2022/05/25 03:41:51;;;;;;;;;;;;;;;;;;5097054;28;19947;-81
2022/05/25 03:44:16;;;;;;;;;;;;;;;;;;5115790;28;20274;-81
2022/05/25 03:46:41;;;;;;;;;;;;;;;;;;5117130;28;19927;-82
2022/05/25 03:49:07;;;;;;;;;;;;;;;;;;5118914;28;19964;-82
2022/05/25 03:51:33;;;;;;;;;;;;;;;;;;5118871;28;19916;-80
2022/05/25 03:53:59;;;;;;;;;;;;;;;;;;5119850;28;19916;-81
2022/05/25 03:56:25;;;;;;;;;;;;;;;;;;5118513;28;19922;-81
2022/05/25 03:58:50;;;;;;;;;;;;;;;;;;5117536;28;19915;-80
2022/05/25 04:01:16;;;;;;;;;;;;;;;;;;5117047;28;20396;-81
2022/05/25 04:03:41;;;;;;;;;;;;;;;;;;5118702;28;19920;-81
2022/05/25 04:06:06;;;;;;;;;;;;;;;;;;5117382;28;19965;-81
2022/05/25 04:08:31;;;;;;;;;;;;;;;;;;5117408;28;19919;-81
2022/05/25 04:10:57;;;;;;;;;;;;;;;;;;5118157;28;19916;-80
2022/05/25 04:13:22;;;;;;;;;;;;;;;;;;5117342;28;20033;-80
2022/05/25 04:15:47;;;;;;;;;;;;;;;;;;5118470;28;20222;-80
2022/05/25 04:18:13;;;;;;;;;;;;;;;;;;5118952;28;20329;-81
2022/05/25 04:20:38;;;;;;;;;;;;;;;;;;5117340;28;20409;-81
2022/05/25 04:23:05;;;;;;;;;;;;;;;;;;5118415;28;19958;-81
2022/05/25 04:25:31;;;;;;;;;;;;;;;;;;5116936;28;19916;-81
2022/05/25 04:27:57;;;;;;;;;;;;;;;;;;5118138;28;19942;-80
2022/05/25 04:30:24;;;;;;;;;;;;;;;;;;5116651;28;19916;-81
2022/05/25 04:32:49;;;;;;;;;;;;;;;;;;5118085;28;19998;-81
2022/05/25 04:35:14;;;;;;;;;;;;;;;;;;5116785;28;19958;-81
2022/05/25 04:37:49;;;;;;;;;;;;;;;;;;5116735;27;19978;-81
2022/05/25 04:40:15;;;;;;;;;;;;;;;;;;5117781;28;20345;-79
2022/05/25 04:42:40;;;;;;;;;;;;;;;;;;5117106;28;19923;-81
2022/05/25 04:45:06;;;;;;;;;;;;;;;;;;5116144;28;19920;-82
2022/05/25 04:47:32;;;;;;;;;;;;;;;;;;5118037;28;20002;-80
2022/05/25 04:49:58;;;;;;;;;;;;;;;;;;5117849;28;20332;-81
2022/05/25 04:52:23;;;;;;;;;;;;;;;;;;5116518;28;20629;-78
2022/05/25 04:54:48;;;;;;;;;;;;;;;;;;5117806;28;19923;-79
2022/05/25 04:57:19;;;;;;;;;;;;;;;;;;5117547;28;20322;-78
2022/05/25 04:59:48;;;;;;;;;;;;;;;;;;5117220;28;19930;-79
2022/05/25 05:02:14;;;;;;;;;;;;;;;;;;5117453;28;19915;-81
2022/05/25 05:04:39;;;;;;;;;;;;;;;;;;5117161;28;19916;-80
2022/05/25 05:07:04;;;;;;;;;;;;;;;;;;5117398;28;19916;-77
2022/05/25 05:09:33;;;;;;;;;;;;;;;;;;5117378;28;19916;-80
2022/05/25 05:12:01;;;;;;;;;;;;;;;;;;5117103;28;19916;-82
2022/05/25 05:14:26;;;;;;;;;;;;;;;;;;5115881;28;19968;-80
2022/05/25 05:16:55;;;;;;;;;;;;;;;;;;5117116;28;19915;-80
2022/05/25 05:19:21;;;;;;;;;;;;;;;;;;5117189;28;19946;-79
2022/05/25 05:21:46;;;;;;;;;;;;;;;;;;5116774;28;19915;-79
2022/05/25 05:24:11;;;;;;;;;;;;;;;;;;5116771;28;19922;-79
2022/05/25 05:26:37;;;;;;;;;;;;;;;;;;5115804;28;19922;-79
2022/05/25 05:29:02;;;;;;;;;;;;;;;;;;5115521;28;19942;-79
2022/05/25 05:31:27;;;;;;;;;;;;;;;;;;5116878;28;20614;-79
2022/05/25 05:33:54;;;;;;;;;;;;;;;;;;5116942;28;19923;-78
2022/05/25 05:36:26;;;;;;;;;;;;;;;;;;5116766;28;19920;-79
2022/05/25 05:38:55;;;;;;;;;;;;;;;;;;5116527;28;19965;-74
2022/05/25 05:41:21;;;;;;;;;;;;;;;;;;5115227;28;19916;-75
2022/05/25 05:43:46;;;;;;;;;;;;;;;;;;5115261;28;19968;-76
2022/05/25 05:46:12;;;;;;;;;;;;;;;;;;5115964;28;19924;-76
2022/05/25 05:48:37;;;;;;;;;;;;;;;;;;5116515;28;19922;-75
2022/05/25 05:51:04;;;;;;;;;;;;;;;;;;5114193;28;20308;-75
2022/05/25 05:53:29;;;;;;;;;;;;;;;;;;5116488;28;19915;-76
2022/05/25 05:55:55;;;;;;;;;;;;;;;;;;5097592;28;19922;-76
2022/05/25 05:58:20;;;;;;;;;;;;;;;;;;5114041;28;19916;-74
2022/05/25 06:00:45;;;;;;;;;;;;;;;;;;5116000;28;20367;-74
2022/05/25 06:03:12;;;;;;;;;;;;;;;;;;5115896;28;20429;-75
2022/05/25 06:05:37;;;;;;;;;;;;;;;;;;5114753;28;19916;-75
2022/05/25 06:08:07;;;;;;;;;;;;;;;;;;5115446;28;19927;-75
2022/05/25 06:10:33;;;;;;;;;;;;;;;;;;5115647;27;19916;-76
2022/05/25 06:12:58;;;;;;;;;;;;;;;;;;5114167;28;19923;-76
2022/05/25 06:20:51;;;;;;;;;;;;;;;;;;5110093;28;20315;-75
2022/05/25 06:23:17;;;;;;;;;;;;;;;;;;5115631;28;19916;-75
2022/05/25 06:25:42;;;;;;;;;;;;;;;;;;5115393;28;20322;-76
2022/05/25 06:28:07;;;;;;;;;;;;;;;;;;5115492;28;19971;-73
2022/05/25 06:30:32;;;;;;;;;;;;;;;;;;5114262;28;20041;-75
2022/05/25 06:32:58;;;;;;;;;;;;;;;;;;5114156;28;19923;-76
2022/05/25 06:35:23;;;;;;;;;;;;;;;;;;5114876;28;19958;-75
2022/05/25 06:37:48;;;;;;;;;;;;;;;;;;5117891;28;19916;-73
2022/05/25 06:40:14;;;;;;;;;;;;;;;;;;5115876;28;19916;-76
2022/05/25 06:42:41;;;;;;;;;;;;;;;;;;5115500;28;19978;-75
2022/05/25 06:45:08;;;;;;;;;;;;;;;;;;5114882;28;19916;-75
2022/05/25 06:47:34;;;;;;;;;;;;;;;;;;5115324;28;19977;-76
2022/05/25 06:50:00;;;;;;;;;;;;;;;;;;5115002;28;19916;-75
2022/05/25 06:52:25;;;;;;;;;;;;;;;;;;5115083;28;19922;-76
2022/05/25 06:54:53;;;;;;;;;;;;;;;;;;5113778;28;19916;-76
2022/05/25 06:57:19;;;;;;;;;;;;;;;;;;5113941;28;20253;-75
2022/05/25 06:59:44;;;;;;;;;;;;;;;;;;5115108;28;19917;-75
2022/05/25 07:02:09;;;;;;;;;;;;;;;;;;5113857;28;19916;-75
2022/05/25 07:04:35;;;;;;;;;;;;;;;;;;5113881;28;20392;-75
2022/05/25 07:07:00;;;;;;;;;;;;;;;;;;5114811;28;19915;-76
2022/05/25 07:09:26;;;;;;;;;;;;;;;;;;5113438;28;19912;-76
2022/05/25 07:11:51;;;;;;;;;;;;;;;;;;5114696;28;19963;-76
2022/05/25 07:14:19;;;;;;;;;;;;;;;;;;5113780;28;20006;-77
2022/05/25 07:16:45;;;;;;;;;;;;;;;;;;5114860;28;19916;-76
2022/05/25 07:19:10;;;;;;;;;;;;;;;;;;5115519;28;19922;-74
2022/05/25 07:21:35;;;;;;;;;;;;;;;;;;5119343;28;20011;-75
2022/05/25 07:24:01;;;;;;;;;;;;;;;;;;5118797;28;20330;-75
2022/05/25 07:26:27;;;;;;;;;;;;;;;;;;5119291;28;19986;-75
2022/05/25 07:28:52;;;;;;;;;;;;;;;;;;5117797;28;19916;-76
2022/05/25 07:31:24;;;;;;;;;;;;;;;;;;5118485;28;20329;-76
2022/05/25 07:33:53;;;;;;;;;;;;;;;;;;5118850;28;19915;-76
2022/05/25 07:36:19;;;;;;;;;;;;;;;;;;5118645;28;19960;-75
2022/05/25 07:38:44;;;;;;;;;;;;;;;;;;5117227;28;19916;-76
2022/05/25 07:41:10;;;;;;;;;;;;;;;;;;5117489;28;19911;-75
2022/05/25 07:43:35;;;;;;;;;;;;;;;;;;5118139;28;19916;-75
2022/05/25 07:46:01;;;;;;;;;;;;;;;;;;5116737;28;19927;-75
2022/05/25 07:48:26;;;;;;;;;;;;;;;;;;5118365;28;19916;-76
2022/05/25 07:50:51;;;;;;;;;;;;;;;;;;5117183;28;19916;-76
2022/05/25 07:56:03;;;;;;;;;;;;;;;;;;5116943;28;19923;-76
2022/05/25 07:58:29;;;;;;;;;;;;;;;;;;5118063;28;19916;-76
2022/05/25 08:00:54;;;;;;;;;;;;;;;;;;5118116;28;20329;-76
2022/05/25 08:06:04;;;;;;;;;;;;;;;;;;5117117;28;20004;-78
2022/05/25 08:08:29;;;;;;;;;;;;;;;;;;5117579;28;20291;-77
2022/05/25 08:10:56;;;;;;;;;;;;;;;;;;5117154;28;19912;-76
2022/05/25 08:13:21;;;;;;;;;;;;;;;;;;5118054;28;19920;-77
2022/05/25 08:15:46;;;;;;;;;;;;;;;;;;5118030;28;19919;-76
2022/05/25 08:18:12;;;;;;;;;;;;;;;;;;5117642;28;19916;-76
2022/05/25 08:20:37;;;;;;;;;;;;;;;;;;5117924;28;19955;-76
2022/05/25 08:23:06;;;;;;;;;;;;;;;;;;5117918;28;19916;-76
2022/05/25 08:25:31;;;;;;;;;;;;;;;;;;5117536;28;20328;-78
2022/05/25 08:27:56;;;;;;;;;;;;;;;;;;5118015;28;19947;-77
2022/05/25 08:30:22;;;;;;;;;;;;;;;;;;5099066;28;19916;-76
2022/05/25 08:32:47;;;;;;;;;;;;;;;;;;5117443;28;19922;-75
2022/05/25 08:35:13;;;;;;;;;;;;;;;;;;5116983;28;20256;-75
2022/05/25 08:37:41;;;;;;;;;;;;;;;;;;5117000;28;19916;-76
2022/05/25 08:40:06;;;;;;;;;;;;;;;;;;5116565;28;19964;-76
2022/05/25 08:42:32;;;;;;;;;;;;;;;;;;5117399;28;19916;-76
2022/05/25 08:44:58;;;;;;;;;;;;;;;;;;5115755;28;19915;-75
2022/05/25 08:47:24;;;;;;;;;;;;;;;;;;5117597;28;19978;-76
2022/05/25 08:49:51;;;;;;;;;;;;;;;;;;5116977;28;19923;-76
2022/05/25 08:52:37;;;;;;;;;;;;;;;;;;5116855;28;19981;-75
2022/05/25 08:55:04;;;;;;;;;;;;;;;;;;5115103;28;19923;-77
2022/05/25 08:57:48;;;;;;;;;;;;;;;;;;5117058;28;19923;-77
2022/05/25 09:00:15;;;;;;;;;;;;;;;;;;5117140;28;19920;-76
2022/05/25 09:02:52;;;;;;;;;;;;;;;;;;5119089;28;19920;-77
2022/05/25 09:05:25;;;;;;;;;;;;;;;;;;5116542;28;20583;-77
2022/05/25 09:07:56;;;;;;;;;;;;;;;;;;5116474;28;19916;-77
2022/05/25 09:10:22;;;;;;;;;;;;;;;;;;5115439;28;19965;-76
2022/05/25 09:12:50;;;;;;;;;;;;;;;;;;5116685;28;19916;-77
2022/05/25 09:15:16;;;;;;;;;;;;;;;;;;5116475;28;19916;-76
2022/05/25 09:17:51;;;;;;;;;;;;;;;;;;5115261;28;20328;-76
2022/05/25 09:20:17;;;;;;;;;;;;;;;;;;5116250;27;19915;-78
2022/05/25 09:22:42;;;;;;;;;;;;;;;;;;5116612;28;20249;-78
2022/05/25 09:25:08;;;;;;;;;;;;;;;;;;5115379;28;19915;-76
2022/05/25 09:27:43;;;;;;;;;;;;;;;;;;5115759;28;19919;-76
2022/05/25 09:30:09;;;;;;;;;;;;;;;;;;5116720;28;19964;-76
2022/05/25 09:32:37;;;;;;;;;;;;;;;;;;5116505;28;19911;-76
2022/05/25 09:35:04;;;;;;;;;;;;;;;;;;5116009;28;19951;-75
2022/05/25 09:37:53;;;;;;;;;;;;;;;;;;5116297;28;19912;-75
2022/05/25 09:40:22;;;;;;;;;;;;;;;;;;5114933;28;19958;-76
2022/05/25 09:42:52;;;;;;;;;;;;;;;;;;5115219;28;19916;-75
2022/05/25 09:45:17;;;;;;;;;;;;;;;;;;5115847;28;19923;-76
2022/05/25 09:47:46;;;;;;;;;;;;;;;;;;5116043;28;19916;-75
2022/05/25 09:50:16;;;;;;;;;;;;;;;;;;5115566;28;19964;-77
2022/05/25 09:52:43;;;;;;;;;;;;;;;;;;5114672;28;20374;-76
2022/05/25 09:55:08;;;;;;;;;;;;;;;;;;5114502;28;19925;-76
2022/05/25 09:57:38;;;;;;;;;;;;;;;;;;5115943;28;20406;-76
2022/05/25 10:00:07;;;;;;;;;;;;;;;;;;5115771;28;19926;-77
2022/05/25 10:02:42;;;;;;;;;;;;;;;;;;5115820;28;19947;-76
2022/05/25 10:05:15;;;;;;;;;;;;;;;;;;5096945;28;19922;-77
2022/05/25 10:07:51;;;;;;;;;;;;;;;;;;5114200;28;20593;-76
2022/05/25 10:10:22;;;;;;;;;;;;;;;;;;5115558;28;19951;-79
2022/05/25 10:12:48;;;;;;;;;;;;;;;;;;5115303;28;19911;-78
2022/05/25 10:15:14;;;;;;;;;;;;;;;;;;5114121;28;19967;-77
2022/05/25 10:17:40;;;;;;;;;;;;;;;;;;5115299;28;19938;-76
2022/05/25 10:20:27;;;;;;;;;;;;;;;;;;5115708;28;19916;-77
2022/05/25 10:23:01;;;;;;;;;;;;;;;;;;5115468;28;19916;-78
2022/05/25 10:25:27;;;;;;;;;;;;;;;;;;5097082;28;19915;-78
2022/05/25 10:27:53;;;;;;;;;;;;;;;;;;5114317;28;19916;-76
2022/05/25 10:39:24;;;;;;;;;;;;;;;;;;5108472;28;20020;-75
2022/05/25 10:42:01;;;;;;;;;;;;;;;;;;5114911;28;19916;-76
2022/05/25 10:44:27;;;;;;;;;;;;;;;;;;5115409;28;20321;-76
2022/05/25 10:46:53;;;;;;;;;;;;;;;;;;5114982;28;20004;-75
2022/05/25 10:49:23;;;;;;;;;;;;;;;;;;5115551;28;19938;-75
2022/05/25 10:51:49;;;;;;;;;;;;;;;;;;5115035;28;19959;-76
2022/05/25 10:54:52;;;;;;;;;;;;;;;;;;5118423;28;20294;-76
2022/05/25 10:57:23;;;;;;;;;;;;;;;;;;5119776;28;19938;-74
2022/05/25 11:00:04;;;;;;;;;;;;;;;;;;5121749;27;19916;-76
2022/05/25 11:02:32;;;;;;;;;;;;;;;;;;5121749;27;19923;-77
2022/05/25 11:05:09;;;;;;;;;;;;;;;;;;5121781;27;20256;-76
2022/05/25 11:07:35;;;;;;;;;;;;;;;;;;5120689;27;20002;-74
2022/05/25 11:10:00;;;;;;;;;;;;;;;;;;5121576;27;19923;-76
2022/05/25 11:12:44;;;;;;;;;;;;;;;;;;5122045;27;19911;-76
2022/05/25 11:15:30;;;;;;;;;;;;;;;;;;5121922;27;19954;-81
2022/05/25 11:17:59;;;;;;;;;;;;;;;;;;5121446;28;19911;-83
2022/05/25 11:20:29;;;;;;;;;;;;;;;;;;5120983;28;19916;-82
2022/05/25 11:23:13;;;;;;;;;;;;;;;;;;5122352;28;19916;-80
2022/05/25 11:25:51;;;;;;;;;;;;;;;;;;5121135;27;19964;-84
2022/05/25 11:28:19;;;;;;;;;;;;;;;;;;5122314;27;19916;-85
2022/05/25 11:30:47;;;;;;;;;;;;;;;;;;5122393;28;19923;-84
2022/05/25 11:33:18;;;;;;;;;;;;;;;;;;5120792;28;19916;-81
2022/05/25 11:35:46;;;;;;;;;;;;;;;;;;5123373;27;19938;-84
2022/05/25 11:38:18;;;;;;;;;;;;;;;;;;5123399;27;20014;-82
2022/05/25 11:40:49;;;;;;;;;;;;;;;;;;5121171;28;20365;-83
2022/05/25 11:43:14;;;;;;;;;;;;;;;;;;5123139;27;19915;-82
2022/05/25 11:46:01;;;;;;;;;;;;;;;;;;5122211;28;20297;-82
2022/05/25 11:48:35;;;;;;;;;;;;;;;;;;5120191;28;20317;-83
2022/05/25 11:51:23;;;;;;;;;;;;;;;;;;5122623;27;19938;-84
2022/05/25 11:54:06;;;;;;;;;;;;;;;;;;5123066;28;19916;-82
2022/05/25 11:56:50;;;;;;;;;;;;;;;;;;5120263;28;19916;-80
2022/05/25 11:59:19;;;;;;;;;;;;;;;;;;5121808;27;19971;-81
2022/05/25 12:01:49;;;;;;;;;;;;;;;;;;5122837;27;19923;-81
2022/05/25 12:04:20;;;;;;;;;;;;;;;;;;5122489;28;19915;-81
2022/05/25 12:06:58;;;;;;;;;;;;;;;;;;5119998;28;19912;-82
2022/05/25 12:09:26;;;;;;;;;;;;;;;;;;5118116;28;19916;-81
2022/05/25 12:12:01;;;;;;;;;;;;;;;;;;5121542;28;19912;-80
2022/05/25 12:14:36;;;;;;;;;;;;;;;;;;5120706;28;19916;-81
2022/05/25 12:17:23;;;;;;;;;;;;;;;;;;5118693;28;19912;-84
2022/05/25 12:19:49;;;;;;;;;;;;;;;;;;5100897;28;20268;-82
2022/05/25 12:22:16;;;;;;;;;;;;;;;;;;5119315;28;19915;-80
2022/05/25 12:24:43;;;;;;;;;;;;;;;;;;5116944;28;19923;-81
2022/05/25 12:27:14;;;;;;;;;;;;;;;;;;5117134;28;19916;-84
2022/05/25 12:30:05;;;;;;;;;;;;;;;;;;5118879;28;19963;-81
2022/05/25 12:32:30;;;;;;;;;;;;;;;;;;5109178;28;19916;-83
2022/05/25 12:34:56;;;;;;;;;;;;;;;;;;5118933;28;19977;-82
2022/05/25 12:37:24;;;;;;;;;;;;;;;;;;5116754;28;19916;-84
2022/05/25 12:39:49;;;;;;;;;;;;;;;;;;5100214;28;20078;-82
2022/05/25 12:42:24;;;;;;;;;;;;;;;;;;5118534;28;20335;-83
2022/05/25 12:50:33;;;;;;;;;;;;;;;;;;5119810;28;20268;-82
2022/05/25 12:53:09;;;;;;;;;;;;;;;;;;5118196;28;19959;-81
2022/05/25 12:55:34;;;;;;;;;;;;;;;;;;5117583;28;19968;-81
2022/05/25 12:57:59;;;;;;;;;;;;;;;;;;5117563;28;19920;-83
2022/05/25 13:00:25;;;;;;;;;;;;;;;;;;5116737;28;19916;-82
2022/05/25 13:02:50;;;;;;;;;;;;;;;;;;5117570;28;19967;-80
2022/05/25 13:05:34;;;;;;;;;;;;;;;;;;5118858;28;19923;-82
2022/05/25 13:07:59;;;;;;;;;;;;;;;;;;5117457;27;20334;-84
2022/05/25 13:10:31;;;;;;;;;;;;;;;;;;5119321;28;19966;-81
2022/05/25 13:12:56;;;;;;;;;;;;;;;;;;5118750;28;19986;-80
2022/05/25 13:15:22;;;;;;;;;;;;;;;;;;5119299;28;19948;-80
2022/05/25 13:17:53;;;;;;;;;;;;;;;;;;5115023;28;19915;-84
2022/05/25 13:20:28;;;;;;;;;;;;;;;;;;5117207;28;19916;-82
2022/05/25 13:22:56;;;;;;;;;;;;;;;;;;5118313;28;19916;-81
2022/05/25 13:25:40;;;;;;;;;;;;;;;;;;5118808;28;19915;-82
2022/05/25 13:28:09;;;;;;;;;;;;;;;;;;5119283;28;19920;-81
2022/05/25 13:30:47;;;;;;;;;;;;;;;;;;5118316;28;19927;-81
2022/05/25 13:33:28;;;;;;;;;;;;;;;;;;5121263;28;19975;-83
2022/05/25 13:35:57;;;;;;;;;;;;;;;;;;5123070;28;19915;-81
2022/05/25 13:38:28;;;;;;;;;;;;;;;;;;5119343;28;20329;-82
2022/05/25 13:41:16;;;;;;;;;;;;;;;;;;5121074;28;19916;-83
2022/05/25 13:43:43;;;;;;;;;;;;;;;;;;5119735;28;19915;-80
2022/05/25 13:46:13;;;;;;;;;;;;;;;;;;5130659;28;19920;-81
2022/05/25 13:48:38;;;;;;;;;;;;;;;;;;5126420;27;19938;-81
2022/05/25 13:51:04;;;;;;;;;;;;;;;;;;5129852;28;19916;-82
2022/05/25 13:53:33;;;;;;;;;;;;;;;;;;5133899;28;19916;-82
2022/05/25 13:56:00;;;;;;;;;;;;;;;;;;5130939;28;19922;-81
2022/05/25 13:58:25;;;;;;;;;;;;;;;;;;5129426;28;19998;-81
2022/05/25 14:00:50;;;;;;;;;;;;;;;;;;5117643;28;19951;-82
2022/05/25 14:03:16;;;;;;;;;;;;;;;;;;5122268;28;19938;-82
2022/05/25 14:05:44;;;;;;;;;;;;;;;;;;5116210;28;19916;-82
2022/05/25 14:08:20;;;;;;;;;;;;;;;;;;5122834;28;19916;-83
2022/05/25 14:10:58;;;;;;;;;;;;;;;;;;5118578;28;19915;-83
2022/05/25 14:13:28;;;;;;;;;;;;;;;;;;5115341;28;20018;-82
2022/05/25 14:15:58;;;;;;;;;;;;;;;;;;5115577;28;19998;-82
2022/05/25 14:18:23;;;;;;;;;;;;;;;;;;5116568;28;19955;-82
2022/05/25 14:20:49;;;;;;;;;;;;;;;;;;5116358;28;19916;-81
2022/05/25 14:23:16;;;;;;;;;;;;;;;;;;5116133;28;19916;-81
2022/05/25 14:25:42;;;;;;;;;;;;;;;;;;5116726;28;20431;-80
2022/05/25 14:28:08;;;;;;;;;;;;;;;;;;5115378;28;20340;-82
2022/05/25 14:30:35;;;;;;;;;;;;;;;;;;5115129;28;19915;-82
2022/05/25 14:33:15;;;;;;;;;;;;;;;;;;5116103;28;19916;-81
2022/05/25 14:35:40;;;;;;;;;;;;;;;;;;5115043;28;19916;-82
2022/05/25 14:38:06;;;;;;;;;;;;;;;;;;5114678;28;20014;-82
2022/05/25 14:40:33;;;;;;;;;;;;;;;;;;5115683;27;19922;-82
2022/05/25 14:43:02;;;;;;;;;;;;;;;;;;5115786;28;19973;-81
2022/05/25 14:45:27;;;;;;;;;;;;;;;;;;5115938;28;19920;-81
2022/05/25 14:47:57;;;;;;;;;;;;;;;;;;5115304;28;19922;-81
2022/05/25 14:50:26;;;;;;;;;;;;;;;;;;5116006;28;19916;-81
2022/05/25 14:53:09;;;;;;;;;;;;;;;;;;5115341;28;20426;-81
2022/05/25 14:55:36;;;;;;;;;;;;;;;;;;5115838;28;19922;-81
2022/05/25 14:58:08;;;;;;;;;;;;;;;;;;5114806;28;19916;-82
2022/05/25 15:00:57;;;;;;;;;;;;;;;;;;5114877;28;19915;-82
2022/05/25 15:03:36;;;;;;;;;;;;;;;;;;5111210;28;20002;-81
2022/05/25 15:06:01;;;;;;;;;;;;;;;;;;5115329;28;20322;-81
2022/05/25 15:08:29;;;;;;;;;;;;;;;;;;5115122;28;19916;-84
2022/05/25 15:10:56;;;;;;;;;;;;;;;;;;5116055;28;19915;-82
2022/05/25 15:18:29;;;;;;;;;;;;;;;;;;5115759;28;19923;-82
2022/05/25 15:19:01;;;;;;;;;;;;;;;;;;5114074;28;19964;-83
2022/05/25 15:21:27;;;;;;;;;;;;;;;;;;5114372;28;19916;-81
2022/05/25 15:23:54;;;;;;;;;;;;;;;;;;5114762;28;19923;-82
2022/05/25 15:26:24;;;;;;;;;;;;;;;;;;5115742;28;19959;-82
2022/05/25 15:28:49;;;;;;;;;;;;;;;;;;5115749;28;20593;-81
2022/05/25 15:31:16;;;;;;;;;;;;;;;;;;5113532;28;19915;-82
2022/05/25 15:33:42;;;;;;;;;;;;;;;;;;5115055;28;19922;-80
2022/05/25 15:36:12;;;;;;;;;;;;;;;;;;5115543;28;20004;-81
2022/05/25 15:38:39;;;;;;;;;;;;;;;;;;5113846;28;19916;-80
2022/05/25 15:41:04;;;;;;;;;;;;;;;;;;5116694;28;20022;-81
2022/05/25 15:43:30;;;;;;;;;;;;;;;;;;5120385;28;20071;-82
2022/05/25 15:45:56;;;;;;;;;;;;;;;;;;5118017;28;19920;-81
2022/05/25 15:48:22;;;;;;;;;;;;;;;;;;5119496;28;19999;-81
2022/05/25 15:50:50;;;;;;;;;;;;;;;;;;5100309;28;20012;-81
2022/05/25 15:53:15;;;;;;;;;;;;;;;;;;5121161;28;19973;-82
2022/05/25 15:55:41;;;;;;;;;;;;;;;;;;5118191;28;19916;-81
2022/05/25 15:58:06;;;;;;;;;;;;;;;;;;5120039;28;19916;-82
2022/05/25 16:00:32;;;;;;;;;;;;;;;;;;5117751;28;19915;-80
2022/05/25 16:02:58;;;;;;;;;;;;;;;;;;5118011;28;20329;-82
2022/05/25 16:05:25;;;;;;;;;;;;;;;;;;5117008;28;19916;-82
2022/05/25 16:10:34;;;;;;;;;;;;;;;;;;5117975;28;19923;-81
2022/05/25 16:12:59;;;;;;;;;;;;;;;;;;5118410;28;19916;-82
2022/05/25 16:15:25;;;;;;;;;;;;;;;;;;5099828;28;19923;-82
2022/05/25 16:17:50;;;;;;;;;;;;;;;;;;5116847;28;19919;-82
2022/05/25 16:20:19;;;;;;;;;;;;;;;;;;5118558;28;19977;-80
2022/05/25 16:22:45;;;;;;;;;;;;;;;;;;5100186;28;19915;-81
2022/05/25 16:25:14;;;;;;;;;;;;;;;;;;5118100;28;19916;-82
2022/05/25 16:27:39;;;;;;;;;;;;;;;;;;5117500;28;19988;-81
2022/05/25 16:30:05;;;;;;;;;;;;;;;;;;5118600;28;19971;-82
2022/05/25 16:32:30;;;;;;;;;;;;;;;;;;5100175;28;20252;-82
2022/05/25 16:34:55;;;;;;;;;;;;;;;;;;5118862;28;19916;-82
2022/05/25 16:37:21;;;;;;;;;;;;;;;;;;5116486;28;19916;-81
2022/05/25 16:39:47;;;;;;;;;;;;;;;;;;5117906;28;19987;-81
2022/05/25 16:42:13;;;;;;;;;;;;;;;;;;5116584;28;20337;-81
2022/05/25 16:44:38;;;;;;;;;;;;;;;;;;5118990;28;19915;-81
2022/05/25 16:47:04;;;;;;;;;;;;;;;;;;5103077;28;19920;-82
2022/05/25 16:49:29;;;;;;;;;;;;;;;;;;5118748;28;20011;-82
2022/05/25 16:51:55;;;;;;;;;;;;;;;;;;5117937;28;19916;-82
2022/05/25 16:54:22;;;;;;;;;;;;;;;;;;5118710;28;19922;-82
2022/05/25 16:56:54;;;;;;;;;;;;;;;;;;5116815;28;19916;-82
2022/05/25 16:59:19;;;;;;;;;;;;;;;;;;5117723;28;20248;-82
2022/05/25 17:01:45;;;;;;;;;;;;;;;;;;5117097;28;19920;-83
2022/05/25 17:04:10;;;;;;;;;;;;;;;;;;5117113;28;19915;-82
2022/05/25 17:06:35;;;;;;;;;;;;;;;;;;5117481;28;19916;-83
2022/05/25 17:09:01;;;;;;;;;;;;;;;;;;5117938;28;19922;-84
2022/05/25 17:11:26;;;;;;;;;;;;;;;;;;5117466;28;20260;-83
2022/05/25 17:13:52;;;;;;;;;;;;;;;;;;5117303;28;20000;-82
2022/05/25 17:16:17;;;;;;;;;;;;;;;;;;5117251;28;19915;-82
2022/05/25 17:21:27;;;;;;;;;;;;;;;;;;5116609;28;19922;-82
2022/05/25 17:23:52;;;;;;;;;;;;;;;;;;5115455;28;20268;-81
2022/05/25 17:26:18;;;;;;;;;;;;;;;;;;5116796;28;20321;-82
2022/05/25 17:28:44;;;;;;;;;;;;;;;;;;5116601;27;19916;-81
2022/05/25 17:31:09;;;;;;;;;;;;;;;;;;5116471;28;19918;-82